createdAt,value
2018-09-09T00:01:02.764Z,30.49
2018-09-09T00:03:38.607Z,30.51
2018-09-09T00:06:15.623Z,30.53
2018-09-09T00:08:51.821Z,30.54
2018-09-09T00:11:27.713Z,30.57
2018-09-09T00:14:03.941Z,30.59
2018-09-09T00:16:40.320Z,30.61
2018-09-09T00:19:16.334Z,30.61
2018-09-09T00:21:52.770Z,30.62
2018-09-09T00:24:29.563Z,30.63
2018-09-09T00:27:07.609Z,30.65
2018-09-09T00:29:43.576Z,30.65
2018-09-09T00:32:24.543Z,30.65
2018-09-09T00:35:02.464Z,30.67
2018-09-09T00:38:33.808Z,30.66
2018-09-09T00:41:10.598Z,30.69
2018-09-09T00:43:46.601Z,30.70
2018-09-09T00:46:22.625Z,30.71
2018-09-09T00:50:01.835Z,30.71
2018-09-09T00:53:42.513Z,30.73
2018-09-09T00:56:19.326Z,30.75
2018-09-09T00:58:55.614Z,30.74
2018-09-09T01:01:31.613Z,30.74
2018-09-09T01:04:09.033Z,30.76
2018-09-09T01:06:45.490Z,30.76
2018-09-09T01:09:22.153Z,30.78
2018-09-09T01:11:58.661Z,30.78
2018-09-09T01:14:35.094Z,30.79
2018-09-09T01:17:11.379Z,30.79
2018-09-09T01:19:48.085Z,30.79
2018-09-09T01:22:24.051Z,30.78
2018-09-09T01:25:00.549Z,30.74
2018-09-09T01:27:36.533Z,30.74
2018-09-09T01:30:12.620Z,30.76
2018-09-09T01:32:48.790Z,30.74
2018-09-09T01:35:25.072Z,30.75
2018-09-09T01:38:02.447Z,30.76
2018-09-09T01:40:38.867Z,30.78
2018-09-09T01:43:15.295Z,30.77
2018-09-09T01:45:51.617Z,30.78
2018-09-09T01:48:27.865Z,30.76
2018-09-09T01:51:04.078Z,30.78
2018-09-09T01:53:40.123Z,30.78
2018-09-09T01:56:16.629Z,30.78
2018-09-09T01:58:52.960Z,30.45
2018-09-09T02:01:29.135Z,30.20
2018-09-09T02:04:05.629Z,30.29
2018-09-09T02:06:41.450Z,30.42
2018-09-09T02:11:27.806Z,30.57
2018-09-09T02:14:03.480Z,30.64
2018-09-09T02:16:39.638Z,30.71
2018-09-09T02:19:15.533Z,30.72
2018-09-09T02:21:51.838Z,30.79
2018-09-09T02:24:27.809Z,30.82
2018-09-09T02:27:03.660Z,30.83
2018-09-09T02:29:39.618Z,30.85
2018-09-09T02:32:16.576Z,30.86
2018-09-09T02:34:52.885Z,30.86
2018-09-09T02:37:28.641Z,30.85
2018-09-09T02:42:51.663Z,30.82
2018-09-09T02:45:27.541Z,30.85
2018-09-09T02:48:04.081Z,30.85
2018-09-09T02:50:40.329Z,30.85
2018-09-09T02:53:16.750Z,30.85
2018-09-09T02:55:52.586Z,30.86
2018-09-09T02:58:28.651Z,30.86
2018-09-09T03:01:04.845Z,30.85
2018-09-09T03:03:41.197Z,30.84
2018-09-09T03:06:17.669Z,30.83
2018-09-09T03:08:53.818Z,30.84
2018-09-09T03:11:29.874Z,30.84
2018-09-09T03:14:06.738Z,30.83
2018-09-09T03:16:42.671Z,30.80
2018-09-09T03:19:18.988Z,30.80
2018-09-09T03:21:55.686Z,30.78
2018-09-09T03:24:31.876Z,30.78
2018-09-09T03:27:08.455Z,30.78
2018-09-09T03:29:44.469Z,30.76
2018-09-09T03:32:20.888Z,30.76
2018-09-09T03:34:56.877Z,30.74
2018-09-09T03:37:32.890Z,30.75
2018-09-09T03:40:09.361Z,30.74
2018-09-09T03:42:45.688Z,30.72
2018-09-09T03:45:22.067Z,30.72
2018-09-09T03:47:58.430Z,30.71
2018-09-09T03:50:34.668Z,30.72
2018-09-09T03:53:10.678Z,30.71
2018-09-09T03:55:46.850Z,30.70
2018-09-09T03:58:23.052Z,30.70
2018-09-09T04:00:59.599Z,30.69
2018-09-09T04:03:36.227Z,30.67
2018-09-09T04:06:12.573Z,30.68
2018-09-09T04:08:48.859Z,30.66
2018-09-09T04:11:25.014Z,30.65
2018-09-09T04:14:01.673Z,30.65
2018-09-09T04:16:37.677Z,30.63
2018-09-09T04:19:13.653Z,30.61
2018-09-09T04:21:54.327Z,30.62
2018-09-09T04:24:30.667Z,30.60
2018-09-09T04:27:07.132Z,30.60
2018-09-09T04:29:43.686Z,30.59
2018-09-09T04:32:20.128Z,30.58
2018-09-09T04:34:56.815Z,30.58
2018-09-09T04:37:33.401Z,30.56
2018-09-09T04:40:10.367Z,30.56
2018-09-09T04:42:46.734Z,30.58
2018-09-09T04:45:22.867Z,30.58
2018-09-09T04:47:59.254Z,30.60
2018-09-09T04:50:35.866Z,30.58
2018-09-09T04:53:12.695Z,30.67
2018-09-09T04:55:49.066Z,30.72
2018-09-09T04:58:25.705Z,30.77
2018-09-09T05:01:02.342Z,30.80
2018-09-09T05:03:39.322Z,30.80
2018-09-09T05:06:13.614Z,30.76
2018-09-09T05:08:50.118Z,30.82
2018-09-09T05:11:26.887Z,30.83
2018-09-09T05:14:03.450Z,30.83
2018-09-09T05:16:39.708Z,30.84
2018-09-09T05:19:16.706Z,30.82
2018-09-09T05:22:37.691Z,30.81
2018-09-09T05:25:14.536Z,30.80
2018-09-09T05:27:50.473Z,30.80
2018-09-09T05:30:27.034Z,30.81
2018-09-09T05:33:04.189Z,30.83
2018-09-09T05:35:40.885Z,30.85
2018-09-09T05:38:17.078Z,30.88
2018-09-09T05:40:53.634Z,30.89
2018-09-09T05:43:29.693Z,30.90
2018-09-09T05:46:05.902Z,30.92
2018-09-09T05:48:41.915Z,30.94
2018-09-09T05:51:17.824Z,30.96
2018-09-09T05:53:53.754Z,30.98
2018-09-09T05:56:30.282Z,30.99
2018-09-09T05:59:07.325Z,31.01
2018-09-09T06:01:44.051Z,31.03
2018-09-09T06:04:20.059Z,31.03
2018-09-09T06:06:56.490Z,31.04
2018-09-09T06:09:32.530Z,31.03
2018-09-09T06:12:08.928Z,31.05
2018-09-09T06:14:45.156Z,31.07
2018-09-09T06:17:21.539Z,31.08
2018-09-09T06:19:57.726Z,31.08
2018-09-09T06:22:34.119Z,31.09
2018-09-09T06:25:10.387Z,31.10
2018-09-09T06:27:46.733Z,31.10
2018-09-09T06:30:23.455Z,31.10
2018-09-09T06:32:59.966Z,31.10
2018-09-09T06:35:36.201Z,31.12
2018-09-09T06:38:12.737Z,31.12
2018-09-09T06:40:48.741Z,31.13
2018-09-09T06:43:25.067Z,31.14
2018-09-09T06:46:01.740Z,31.14
2018-09-09T06:48:37.918Z,31.15
2018-09-09T06:51:13.945Z,31.15
2018-09-09T06:53:50.062Z,31.14
2018-09-09T06:56:26.981Z,31.15
2018-09-09T06:59:03.720Z,31.17
2018-09-09T07:01:40.773Z,31.17
2018-09-09T07:04:18.566Z,31.18
2018-09-09T07:06:54.967Z,31.18
2018-09-09T07:09:31.755Z,31.19
2018-09-09T07:12:08.057Z,31.19
2018-09-09T07:14:44.391Z,31.19
2018-09-09T07:17:20.546Z,31.20
2018-09-09T07:19:56.930Z,31.20
2018-09-09T07:22:33.750Z,31.20
2018-09-09T07:25:09.756Z,31.21
2018-09-09T07:27:45.921Z,31.21
2018-09-09T07:30:24.717Z,31.20
2018-09-09T07:33:00.724Z,31.21
2018-09-09T07:35:36.765Z,31.20
2018-09-09T07:38:12.760Z,31.21
2018-09-09T07:40:49.093Z,31.21
2018-09-09T07:43:25.088Z,31.23
2018-09-09T07:46:01.529Z,31.19
2018-09-09T07:48:37.734Z,31.10
2018-09-09T07:51:14.092Z,30.98
2018-09-09T07:53:50.589Z,30.88
2018-09-09T07:56:26.559Z,30.83
2018-09-09T07:59:02.761Z,30.81
2018-09-09T08:01:38.938Z,30.75
2018-09-09T08:04:15.324Z,30.72
2018-09-09T08:06:51.129Z,30.68
2018-09-09T08:09:27.208Z,30.67
2018-09-09T08:12:04.403Z,30.66
2018-09-09T08:14:40.775Z,30.64
2018-09-09T08:17:17.056Z,30.63
2018-09-09T08:19:53.521Z,30.61
2018-09-09T08:22:29.529Z,30.61
2018-09-09T08:25:06.598Z,30.59
2018-09-09T08:27:42.790Z,30.59
2018-09-09T08:30:18.757Z,30.58
2018-09-09T08:32:54.746Z,30.58
2018-09-09T08:35:30.681Z,30.57
2018-09-09T08:38:06.779Z,30.56
2018-09-09T08:40:42.781Z,30.56
2018-09-09T08:43:19.161Z,30.56
2018-09-09T08:45:55.109Z,30.56
2018-09-09T08:48:32.005Z,30.55
2018-09-09T08:51:08.467Z,30.53
2018-09-09T08:53:46.012Z,30.53
2018-09-09T08:56:21.975Z,30.51
2018-09-09T08:58:58.180Z,30.49
2018-09-09T09:01:34.562Z,30.48
2018-09-09T09:04:10.790Z,30.46
2018-09-09T09:06:46.798Z,30.45
2018-09-09T09:09:23.069Z,30.44
2018-09-09T09:11:59.075Z,30.41
2018-09-09T09:14:35.309Z,30.40
2018-09-09T09:17:11.538Z,30.39
2018-09-09T09:19:47.771Z,30.39
2018-09-09T09:22:23.767Z,30.38
2018-09-09T09:25:00.556Z,30.37
2018-09-09T09:27:36.701Z,30.35
2018-09-09T09:30:13.386Z,30.34
2018-09-09T09:32:50.016Z,30.29
2018-09-09T09:35:56.628Z,30.32
2018-09-09T09:38:32.552Z,30.32
2018-09-09T09:41:09.205Z,30.29
2018-09-09T09:43:45.686Z,30.29
2018-09-09T09:46:21.995Z,30.28
2018-09-09T09:48:58.034Z,30.29
2018-09-09T09:51:34.237Z,30.26
2018-09-09T09:54:10.478Z,30.27
2018-09-09T09:56:46.993Z,30.24
2018-09-09T09:59:23.090Z,30.24
2018-09-09T10:01:59.541Z,30.23
2018-09-09T10:04:35.749Z,30.23
2018-09-09T10:07:11.821Z,30.23
2018-09-09T10:09:47.938Z,30.21
2018-09-09T10:12:24.142Z,30.20
2018-09-09T10:15:00.826Z,30.19
2018-09-09T10:17:36.804Z,30.19
2018-09-09T10:20:12.808Z,30.17
2018-09-09T10:22:48.821Z,30.16
2018-09-09T10:25:25.187Z,30.13
2018-09-09T10:28:01.061Z,30.11
2018-09-09T10:30:37.152Z,30.09
2018-09-09T10:33:13.784Z,30.08
2018-09-09T10:35:50.359Z,30.07
2018-09-09T10:38:27.029Z,30.03
2018-09-09T10:41:03.497Z,30.02
2018-09-09T10:43:39.822Z,30.00
2018-09-09T10:46:16.203Z,29.98
2018-09-09T10:48:52.224Z,29.96
2018-09-09T10:51:28.807Z,29.94
2018-09-09T10:54:04.998Z,29.94
2018-09-09T10:56:41.112Z,29.93
2018-09-09T10:59:17.684Z,29.92
2018-09-09T11:01:54.293Z,29.90
2018-09-09T11:04:30.279Z,29.91
2018-09-09T11:07:07.053Z,29.88
2018-09-09T11:09:43.009Z,29.89
2018-09-09T11:12:20.175Z,29.87
2018-09-09T11:14:56.452Z,29.87
2018-09-09T11:17:33.505Z,29.86
2018-09-09T11:20:10.020Z,29.85
2018-09-09T11:22:46.206Z,29.83
2018-09-09T11:25:22.790Z,29.82
2018-09-09T11:27:58.839Z,29.81
2018-09-09T11:30:35.122Z,29.80
2018-09-09T11:33:11.121Z,29.79
2018-09-09T11:35:47.806Z,29.76
2018-09-09T11:38:23.998Z,29.73
2018-09-09T11:41:00.010Z,29.71
2018-09-09T11:43:36.068Z,29.70
2018-09-09T11:46:12.022Z,29.69
2018-09-09T11:48:48.037Z,29.66
2018-09-09T11:51:24.221Z,29.65
2018-09-09T11:54:00.751Z,29.63
2018-09-09T11:56:36.856Z,29.61
2018-09-09T11:59:12.973Z,29.58
2018-09-09T12:01:49.855Z,29.57
2018-09-09T12:04:26.226Z,29.55
2018-09-09T12:07:02.666Z,29.53
2018-09-09T12:09:39.300Z,29.53
2018-09-09T12:12:15.885Z,29.51
2018-09-09T12:14:52.068Z,29.50
2018-09-09T12:17:28.242Z,29.46
2018-09-09T12:20:05.505Z,29.47
2018-09-09T12:22:41.856Z,29.46
2018-09-09T12:25:17.674Z,29.44
2018-09-09T12:27:53.769Z,29.43
2018-09-09T12:30:29.828Z,29.43
2018-09-09T12:33:05.805Z,29.41
2018-09-09T12:35:41.755Z,29.38
2018-09-09T12:38:18.075Z,29.37
2018-09-09T12:40:53.986Z,29.36
2018-09-09T12:43:34.089Z,29.35
2018-09-09T12:46:14.317Z,29.34
2018-09-09T12:48:54.578Z,29.33
2018-09-09T12:51:30.895Z,29.33
2018-09-09T12:54:07.732Z,29.31
2018-09-09T12:56:43.837Z,29.29
2018-09-09T12:59:20.465Z,29.26
2018-09-09T13:01:56.877Z,29.26
2018-09-09T13:04:33.075Z,29.25
2018-09-09T13:07:09.107Z,29.23
2018-09-09T13:09:45.687Z,29.20
2018-09-09T13:12:21.878Z,29.19
2018-09-09T13:14:58.119Z,29.17
2018-09-09T13:17:34.057Z,29.16
2018-09-09T13:20:10.058Z,29.12
2018-09-09T13:22:45.878Z,29.11
2018-09-09T13:25:22.219Z,29.10
2018-09-09T13:27:58.588Z,29.07
2018-09-09T13:30:34.869Z,29.05
2018-09-09T13:33:11.261Z,29.02
2018-09-09T13:35:47.567Z,29.02
2018-09-09T13:38:23.806Z,29.01
2018-09-09T13:41:00.070Z,29.00
2018-09-09T13:43:36.114Z,29.00
2018-09-09T13:46:12.265Z,28.99
2018-09-09T13:48:48.257Z,28.99
2018-09-09T13:51:24.277Z,28.98
2018-09-09T13:54:00.293Z,28.98
2018-09-09T13:56:37.221Z,28.97
2018-09-09T13:59:13.293Z,28.96
2018-09-09T14:01:49.296Z,28.94
2018-09-09T14:04:25.907Z,28.94
2018-09-09T14:07:01.811Z,28.93
2018-09-09T14:09:38.115Z,28.91
2018-09-09T14:12:14.055Z,28.91
2018-09-09T14:14:49.865Z,28.88
2018-09-09T14:17:25.893Z,28.88
2018-09-09T14:20:02.070Z,28.88
2018-09-09T14:22:38.744Z,28.87
2018-09-09T14:25:14.678Z,28.83
2018-09-09T14:27:50.668Z,28.83
2018-09-09T14:30:27.072Z,28.81
2018-09-09T14:33:03.334Z,28.81
2018-09-09T14:35:39.689Z,28.80
2018-09-09T14:38:15.761Z,28.80
2018-09-09T14:40:51.905Z,28.79
2018-09-09T14:43:28.651Z,28.79
2018-09-09T14:46:04.967Z,28.78
2018-09-09T14:48:40.905Z,28.78
2018-09-09T14:51:16.906Z,28.77
2018-09-09T14:53:53.100Z,28.77
2018-09-09T14:56:28.956Z,28.73
2018-09-09T14:59:05.271Z,28.71
2018-09-09T15:01:41.647Z,28.71
2018-09-09T15:04:17.922Z,28.72
2018-09-09T15:06:53.884Z,28.72
2018-09-09T15:09:30.069Z,28.71
2018-09-09T15:12:05.901Z,28.69
2018-09-09T15:14:42.918Z,28.69
2018-09-09T15:17:19.813Z,28.71
2018-09-09T15:19:55.926Z,28.72
2018-09-09T15:22:32.203Z,28.72
2018-09-09T15:25:08.646Z,28.73
2018-09-09T15:27:44.705Z,28.72
2018-09-09T15:30:21.286Z,28.73
2018-09-09T15:32:57.547Z,28.74
2018-09-09T15:35:33.716Z,28.71
2018-09-09T15:38:10.119Z,28.72
2018-09-09T15:40:46.129Z,28.73
2018-09-09T15:43:21.924Z,28.70
2018-09-09T15:45:58.641Z,28.70
2018-09-09T15:48:34.936Z,28.71
2018-09-09T15:51:11.125Z,28.72
2018-09-09T15:53:47.409Z,28.71
2018-09-09T15:56:23.670Z,28.70
2018-09-09T15:58:59.939Z,28.70
2018-09-09T16:01:35.853Z,28.69
2018-09-09T16:04:11.909Z,28.66
2018-09-09T16:06:47.903Z,28.67
2018-09-09T16:09:25.130Z,28.67
2018-09-09T16:12:01.056Z,28.67
2018-09-09T16:14:37.262Z,28.65
2018-09-09T16:17:13.937Z,28.66
2018-09-09T16:19:49.913Z,28.66
2018-09-09T16:22:26.557Z,28.67
2018-09-09T16:25:06.179Z,28.63
2018-09-09T16:28:43.144Z,28.63
2018-09-09T16:31:18.946Z,28.64
2018-09-09T16:33:55.062Z,28.66
2018-09-09T16:36:31.826Z,28.66
2018-09-09T16:39:09.270Z,28.67
2018-09-09T16:41:45.777Z,28.66
2018-09-09T16:44:22.067Z,28.67
2018-09-09T16:46:58.613Z,28.69
2018-09-09T16:49:34.947Z,28.70
2018-09-09T16:52:11.284Z,28.71
2018-09-09T16:54:47.703Z,28.72
2018-09-09T16:57:23.959Z,28.72
2018-09-09T17:00:00.133Z,28.73
2018-09-09T17:02:36.185Z,28.74
2018-09-09T17:07:59.127Z,28.71
2018-09-09T17:10:35.706Z,28.75
2018-09-09T17:13:13.077Z,28.74
2018-09-09T17:15:49.386Z,28.75
2018-09-09T17:18:27.176Z,28.79
2018-09-09T17:21:03.759Z,28.83
2018-09-09T17:23:40.131Z,28.86
2018-09-09T17:26:16.171Z,28.87
2018-09-09T17:28:52.606Z,28.88
2018-09-09T17:31:28.717Z,28.88
2018-09-09T17:34:05.881Z,28.89
2018-09-09T17:36:41.917Z,28.91
2018-09-09T17:39:19.096Z,28.92
2018-09-09T17:41:55.138Z,28.92
2018-09-09T17:44:31.343Z,28.90
2018-09-09T17:47:08.173Z,28.89
2018-09-09T17:51:36.950Z,28.91
2018-09-09T17:54:13.121Z,28.96
2018-09-09T17:56:49.286Z,28.98
2018-09-09T17:59:26.001Z,29.01
2018-09-09T18:02:02.172Z,29.06
2018-09-09T18:04:39.352Z,29.08
2018-09-09T18:07:15.974Z,29.10
2018-09-09T18:09:52.970Z,29.12
2018-09-09T18:12:29.251Z,29.14
2018-09-09T18:15:05.257Z,29.15
2018-09-09T18:17:41.018Z,29.16
2018-09-09T18:20:17.069Z,29.17
2018-09-09T18:22:53.046Z,29.21
2018-09-09T18:25:29.057Z,29.21
2018-09-09T18:28:05.039Z,29.21
2018-09-09T18:30:41.164Z,29.22
2018-09-09T18:33:17.263Z,29.24
2018-09-09T18:35:53.325Z,29.23
2018-09-09T18:38:29.921Z,29.25
2018-09-09T18:41:06.105Z,29.27
2018-09-09T18:43:42.377Z,29.29
2018-09-09T18:46:18.894Z,29.30
2018-09-09T18:48:55.314Z,29.33
2018-09-09T18:51:31.669Z,29.36
2018-09-09T18:54:07.996Z,29.39
2018-09-09T18:56:44.402Z,29.42
2018-09-09T18:59:21.051Z,29.42
2018-09-09T19:01:57.881Z,29.39
2018-09-09T19:04:34.164Z,29.42
2018-09-09T19:07:10.182Z,29.44
2018-09-09T19:09:46.380Z,29.44
2018-09-09T19:12:22.394Z,29.46
2018-09-09T19:14:58.697Z,29.47
2018-09-09T19:17:34.998Z,29.45
2018-09-09T19:20:11.280Z,29.43
2018-09-09T19:22:48.994Z,29.40
2018-09-09T19:25:25.730Z,29.42
2018-09-09T19:28:03.829Z,29.43
2018-09-09T19:30:40.739Z,29.43
2018-09-09T19:33:17.000Z,29.46
2018-09-09T19:35:54.361Z,29.46
2018-09-09T19:38:31.771Z,29.46
2018-09-09T19:41:08.003Z,29.45
2018-09-09T19:43:44.133Z,29.44
2018-09-09T19:46:20.423Z,29.44
2018-09-09T19:48:56.662Z,29.45
2018-09-09T19:51:32.654Z,29.46
2018-09-09T19:54:08.782Z,29.45
2018-09-09T19:56:44.768Z,29.45
2018-09-09T19:59:21.760Z,29.47
2018-09-09T20:01:57.876Z,29.47
2018-09-09T20:04:35.538Z,29.47
2018-09-09T20:07:12.506Z,29.48
2018-09-09T20:09:48.977Z,29.50
2018-09-09T20:12:24.986Z,29.52
2018-09-09T20:15:01.407Z,29.53
2018-09-09T20:17:37.140Z,29.54
2018-09-09T20:20:15.389Z,29.54
2018-09-09T20:22:49.394Z,29.55
2018-09-09T20:25:25.614Z,29.55
2018-09-09T20:28:01.793Z,29.55
2018-09-09T20:30:38.197Z,29.56
2018-09-09T20:33:13.350Z,29.56
2018-09-09T20:35:50.243Z,29.57
2018-09-09T20:38:26.443Z,29.58
2018-09-09T20:41:02.921Z,29.58
2018-09-09T20:43:39.218Z,29.58
2018-09-09T20:46:15.410Z,29.59
2018-09-09T20:48:51.722Z,29.59
2018-09-09T20:51:28.030Z,29.59
2018-09-09T20:54:04.251Z,29.61
2018-09-09T20:56:40.437Z,29.61
2018-09-09T20:59:17.003Z,29.63
2018-09-09T21:01:53.217Z,29.63
2018-09-09T21:04:29.318Z,29.65
2018-09-09T21:07:05.834Z,29.67
2018-09-09T21:09:42.427Z,29.66
2018-09-09T21:12:19.977Z,29.65
2018-09-09T21:14:57.015Z,29.67
2018-09-09T21:17:33.406Z,29.70
2018-09-09T21:20:09.430Z,29.71
2018-09-09T21:22:45.654Z,29.71
2018-09-09T21:25:21.481Z,29.71
2018-09-09T21:27:59.023Z,29.73
2018-09-09T21:30:35.974Z,29.73
2018-09-09T21:33:12.044Z,29.72
2018-09-09T21:35:48.437Z,29.72
2018-09-09T21:38:24.962Z,29.74
2018-09-09T21:41:01.805Z,29.75
2018-09-09T21:43:38.046Z,29.76
2018-09-09T21:46:14.413Z,29.77
2018-09-09T21:48:50.379Z,29.78
2018-09-09T21:51:27.890Z,29.79
2018-09-09T21:54:04.023Z,29.81
2018-09-09T21:56:40.775Z,29.80
2018-09-09T21:59:17.046Z,29.79
2018-09-09T22:01:57.433Z,29.80
2018-09-09T22:04:33.421Z,29.81
2018-09-09T22:07:13.524Z,29.81
2018-09-09T22:09:50.055Z,29.82
2018-09-09T22:12:26.939Z,29.83
2018-09-09T22:15:03.303Z,29.84
2018-09-09T22:17:40.692Z,29.86
2018-09-09T22:20:17.065Z,29.86
2018-09-09T22:22:56.466Z,29.85
2018-09-09T22:25:32.233Z,29.86
2018-09-09T22:28:08.727Z,29.88
2018-09-09T22:30:45.263Z,29.88
2018-09-09T22:33:21.929Z,29.89
2018-09-09T22:35:58.289Z,29.87
2018-09-09T22:38:34.246Z,29.91
2018-09-09T22:41:11.344Z,29.91
2018-09-09T22:43:47.460Z,29.91
2018-09-09T22:46:25.060Z,29.90
2018-09-09T22:49:02.455Z,29.92
2018-09-09T22:51:38.818Z,29.92
2018-09-09T22:54:16.062Z,29.91
2018-09-09T22:58:59.347Z,29.92
2018-09-09T23:01:35.632Z,29.93
2018-09-09T23:04:13.082Z,29.96
2018-09-09T23:06:49.410Z,29.95
2018-09-09T23:09:25.899Z,29.97
2018-09-09T23:12:02.296Z,29.99
2018-09-09T23:14:38.744Z,29.99
2018-09-09T23:17:16.427Z,30.01
2018-09-09T23:19:52.902Z,30.02
2018-09-09T23:25:30.893Z,29.98
2018-09-09T23:28:07.021Z,30.00
2018-09-09T23:30:44.617Z,29.99
2018-09-09T23:33:21.046Z,30.00
2018-09-09T23:35:57.272Z,30.01
2018-09-09T23:38:34.088Z,30.02
2018-09-09T23:41:11.785Z,30.02
2018-09-09T23:43:47.985Z,30.04
2018-09-09T23:46:25.668Z,30.04
2018-09-09T23:49:01.993Z,30.07
2018-09-09T23:51:39.726Z,30.06
2018-09-09T23:54:16.485Z,30.06
2018-09-09T23:56:53.582Z,30.09
2018-09-09T23:59:30.425Z,30.09
